sensor_id;sensor_type;location;lat;lon;timestamp;temperature;humidity
77305;DHT22;66364;52.622;7.746;2023-06-05T00:01:01;11.70;99.90
77305;DHT22;66364;52.622;7.746;2023-06-05T00:03:03;11.70;99.90
77305;DHT22;66364;52.622;7.746;2023-06-05T00:05:04;11.50;99.90
77305;DHT22;66364;52.622;7.746;2023-06-05T00:07:05;11.50;99.90
77305;DHT22;66364;52.622;7.746;2023-06-05T00:09:06;11.50;99.90
77305;DHT22;66364;52.622;7.746;2023-06-05T00:11:07;11.40;99.90
77305;DHT22;66364;52.622;7.746;2023-06-05T00:13:08;11.30;99.90
77305;DHT22;66364;52.622;7.746;2023-06-05T00:15:10;11.30;99.90
77305;DHT22;66364;52.622;7.746;2023-06-05T00:17:11;11.30;99.90
77305;DHT22;66364;52.622;7.746;2023-06-05T00:19:13;11.20;99.90
77305;DHT22;66364;52.622;7.746;2023-06-05T00:21:15;11.40;99.90
77305;DHT22;66364;52.622;7.746;2023-06-05T00:23:16;11.30;99.90
77305;DHT22;66364;52.622;7.746;2023-06-05T00:25:17;11.30;99.90
77305;DHT22;66364;52.622;7.746;2023-06-05T00:27:18;11.40;99.90
77305;DHT22;66364;52.622;7.746;2023-06-05T00:29:19;11.30;99.90
77305;DHT22;66364;52.622;7.746;2023-06-05T00:31:21;11.30;99.90
77305;DHT22;66364;52.622;7.746;2023-06-05T00:33:22;11.20;99.90
77305;DHT22;66364;52.622;7.746;2023-06-05T00:35:23;11.30;99.90
77305;DHT22;66364;52.622;7.746;2023-06-05T00:37:24;11.30;99.90
77305;DHT22;66364;52.622;7.746;2023-06-05T00:39:25;11.20;99.90
77305;DHT22;66364;52.622;7.746;2023-06-05T00:41:25;11.20;99.90
77305;DHT22;66364;52.622;7.746;2023-06-05T00:43:26;11.50;99.90
77305;DHT22;66364;52.622;7.746;2023-06-05T00:45:28;11.20;99.90
77305;DHT22;66364;52.622;7.746;2023-06-05T00:47:30;11.50;99.90
77305;DHT22;66364;52.622;7.746;2023-06-05T00:49:31;11.20;99.90
77305;DHT22;66364;52.622;7.746;2023-06-05T00:51:32;11.20;99.90
77305;DHT22;66364;52.622;7.746;2023-06-05T00:53:34;11.30;99.90
77305;DHT22;66364;52.622;7.746;2023-06-05T00:55:35;11.30;99.90
77305;DHT22;66364;52.622;7.746;2023-06-05T00:57:38;11.00;99.90
77305;DHT22;66364;52.622;7.746;2023-06-05T00:59:40;10.90;99.90
77305;DHT22;66364;52.622;7.746;2023-06-05T01:01:41;11.20;99.90
77305;DHT22;66364;52.622;7.746;2023-06-05T01:03:43;11.00;99.90
77305;DHT22;66364;52.622;7.746;2023-06-05T01:05:44;10.80;99.90
77305;DHT22;66364;52.622;7.746;2023-06-05T01:07:45;10.90;99.90
77305;DHT22;66364;52.622;7.746;2023-06-05T01:09:46;10.90;99.90
77305;DHT22;66364;52.622;7.746;2023-06-05T01:11:52;11.00;99.90
77305;DHT22;66364;52.622;7.746;2023-06-05T01:14:06;10.90;99.90
77305;DHT22;66364;52.622;7.746;2023-06-05T01:16:05;10.90;99.90
77305;DHT22;66364;52.622;7.746;2023-06-05T01:18:06;10.80;99.90
77305;DHT22;66364;52.622;7.746;2023-06-05T01:20:11;11.00;99.90
77305;DHT22;66364;52.622;7.746;2023-06-05T01:22:11;10.80;99.90
77305;DHT22;66364;52.622;7.746;2023-06-05T01:24:12;10.90;99.90
77305;DHT22;66364;52.622;7.746;2023-06-05T01:26:17;10.80;99.90
77305;DHT22;66364;52.622;7.746;2023-06-05T01:28:20;10.80;99.90
77305;DHT22;66364;52.622;7.746;2023-06-05T01:30:46;10.90;99.90
77305;DHT22;66364;52.622;7.746;2023-06-05T01:32:53;10.90;99.90
77305;DHT22;66364;52.622;7.746;2023-06-05T01:34:55;11.20;99.90
77305;DHT22;66364;52.622;7.746;2023-06-05T01:36:56;10.80;99.90
77305;DHT22;66364;52.622;7.746;2023-06-05T01:38:58;10.70;99.90
77305;DHT22;66364;52.622;7.746;2023-06-05T01:41:02;10.70;99.90
77305;DHT22;66364;52.622;7.746;2023-06-05T01:43:04;10.80;99.90
77305;DHT22;66364;52.622;7.746;2023-06-05T01:45:07;10.60;99.90
77305;DHT22;66364;52.622;7.746;2023-06-05T01:47:10;10.80;99.90
77305;DHT22;66364;52.622;7.746;2023-06-05T01:49:11;10.90;99.90
77305;DHT22;66364;52.622;7.746;2023-06-05T01:51:12;10.50;99.90
77305;DHT22;66364;52.622;7.746;2023-06-05T01:53:14;10.60;99.90
77305;DHT22;66364;52.622;7.746;2023-06-05T01:55:17;10.60;99.90
77305;DHT22;66364;52.622;7.746;2023-06-05T01:57:18;10.60;99.90
77305;DHT22;66364;52.622;7.746;2023-06-05T01:59:19;10.50;99.90
77305;DHT22;66364;52.622;7.746;2023-06-05T02:01:21;10.60;99.90
77305;DHT22;66364;52.622;7.746;2023-06-05T02:03:22;10.40;99.90
77305;DHT22;66364;52.622;7.746;2023-06-05T02:05:23;10.50;99.90
77305;DHT22;66364;52.622;7.746;2023-06-05T02:07:24;10.30;99.90
77305;DHT22;66364;52.622;7.746;2023-06-05T02:09:25;10.30;99.90
77305;DHT22;66364;52.622;7.746;2023-06-05T02:11:26;10.40;99.90
77305;DHT22;66364;52.622;7.746;2023-06-05T02:13:28;10.40;99.90
77305;DHT22;66364;52.622;7.746;2023-06-05T02:15:29;10.60;99.90
77305;DHT22;66364;52.622;7.746;2023-06-05T02:17:30;10.50;99.90
77305;DHT22;66364;52.622;7.746;2023-06-05T02:19:32;10.40;99.90
77305;DHT22;66364;52.622;7.746;2023-06-05T02:21:33;10.40;99.90
77305;DHT22;66364;52.622;7.746;2023-06-05T02:23:34;10.60;99.90
77305;DHT22;66364;52.622;7.746;2023-06-05T02:25:35;10.40;99.90
77305;DHT22;66364;52.622;7.746;2023-06-05T02:27:37;10.20;99.90
77305;DHT22;66364;52.622;7.746;2023-06-05T02:29:38;10.20;99.90
77305;DHT22;66364;52.622;7.746;2023-06-05T02:31:39;10.10;99.90
77305;DHT22;66364;52.622;7.746;2023-06-05T02:33:40;10.00;99.90
77305;DHT22;66364;52.622;7.746;2023-06-05T02:35:41;10.10;99.90
77305;DHT22;66364;52.622;7.746;2023-06-05T02:37:42;10.10;99.90
77305;DHT22;66364;52.622;7.746;2023-06-05T02:39:43;10.00;99.90
77305;DHT22;66364;52.622;7.746;2023-06-05T02:41:44;10.00;99.90
77305;DHT22;66364;52.622;7.746;2023-06-05T02:43:45;10.20;99.90
77305;DHT22;66364;52.622;7.746;2023-06-05T02:45:46;10.00;99.90
77305;DHT22;66364;52.622;7.746;2023-06-05T02:47:48;10.20;99.90
77305;DHT22;66364;52.622;7.746;2023-06-05T02:49:49;10.00;99.90
77305;DHT22;66364;52.622;7.746;2023-06-05T02:51:51;10.10;99.90
77305;DHT22;66364;52.622;7.746;2023-06-05T02:53:52;10.00;99.90
77305;DHT22;66364;52.622;7.746;2023-06-05T02:55:52;9.90;99.90
77305;DHT22;66364;52.622;7.746;2023-06-05T02:57:53;10.10;99.90
77305;DHT22;66364;52.622;7.746;2023-06-05T02:59:54;10.20;99.90
77305;DHT22;66364;52.622;7.746;2023-06-05T03:02:01;9.90;99.90
77305;DHT22;66364;52.622;7.746;2023-06-05T03:04:02;10.10;99.90
77305;DHT22;66364;52.622;7.746;2023-06-05T03:06:03;9.90;99.90
77305;DHT22;66364;52.622;7.746;2023-06-05T03:08:04;9.90;99.90
77305;DHT22;66364;52.622;7.746;2023-06-05T03:10:06;9.90;99.90
77305;DHT22;66364;52.622;7.746;2023-06-05T03:12:07;9.90;99.90
77305;DHT22;66364;52.622;7.746;2023-06-05T03:14:09;9.90;99.90
77305;DHT22;66364;52.622;7.746;2023-06-05T03:16:10;9.60;99.90
77305;DHT22;66364;52.622;7.746;2023-06-05T03:18:10;9.90;99.90
77305;DHT22;66364;52.622;7.746;2023-06-05T03:20:12;10.20;99.90
77305;DHT22;66364;52.622;7.746;2023-06-05T03:22:13;10.10;99.90
77305;DHT22;66364;52.622;7.746;2023-06-05T03:24:14;9.80;99.90
77305;DHT22;66364;52.622;7.746;2023-06-05T03:26:15;10.10;99.90
77305;DHT22;66364;52.622;7.746;2023-06-05T03:28:16;10.10;99.90
77305;DHT22;66364;52.622;7.746;2023-06-05T03:30:17;9.80;99.90
77305;DHT22;66364;52.622;7.746;2023-06-05T03:32:18;10.10;99.90
77305;DHT22;66364;52.622;7.746;2023-06-05T03:34:19;10.00;99.90
77305;DHT22;66364;52.622;7.746;2023-06-05T03:36:20;9.60;99.90
77305;DHT22;66364;52.622;7.746;2023-06-05T03:38:21;9.80;99.90
77305;DHT22;66364;52.622;7.746;2023-06-05T03:40:22;9.70;99.90
77305;DHT22;66364;52.622;7.746;2023-06-05T03:42:23;9.70;99.90
77305;DHT22;66364;52.622;7.746;2023-06-05T03:44:24;9.70;99.90
77305;DHT22;66364;52.622;7.746;2023-06-05T03:46:25;9.80;99.90
77305;DHT22;66364;52.622;7.746;2023-06-05T03:48:26;9.60;99.90
77305;DHT22;66364;52.622;7.746;2023-06-05T03:50:27;9.80;99.90
77305;DHT22;66364;52.622;7.746;2023-06-05T03:52:28;9.90;99.90
77305;DHT22;66364;52.622;7.746;2023-06-05T03:54:29;10.00;99.90
77305;DHT22;66364;52.622;7.746;2023-06-05T03:56:30;9.90;99.90
77305;DHT22;66364;52.622;7.746;2023-06-05T03:58:32;9.90;99.90
77305;DHT22;66364;52.622;7.746;2023-06-05T04:00:33;9.90;99.90
77305;DHT22;66364;52.622;7.746;2023-06-05T04:02:33;9.80;99.90
77305;DHT22;66364;52.622;7.746;2023-06-05T04:04:34;10.00;99.90
77305;DHT22;66364;52.622;7.746;2023-06-05T04:06:35;9.80;99.90
77305;DHT22;66364;52.622;7.746;2023-06-05T04:08:36;9.90;99.90
77305;DHT22;66364;52.622;7.746;2023-06-05T04:10:38;9.90;99.90
77305;DHT22;66364;52.622;7.746;2023-06-05T04:12:38;10.00;99.90
77305;DHT22;66364;52.622;7.746;2023-06-05T04:14:41;9.90;99.90
77305;DHT22;66364;52.622;7.746;2023-06-05T04:16:41;10.00;99.90
77305;DHT22;66364;52.622;7.746;2023-06-05T04:18:43;9.90;99.90
77305;DHT22;66364;52.622;7.746;2023-06-05T04:20:44;9.90;99.90
77305;DHT22;66364;52.622;7.746;2023-06-05T04:22:46;10.10;99.90
77305;DHT22;66364;52.622;7.746;2023-06-05T04:24:46;9.90;99.90
77305;DHT22;66364;52.622;7.746;2023-06-05T04:26:47;9.90;99.90
77305;DHT22;66364;52.622;7.746;2023-06-05T04:28:49;9.90;99.90
77305;DHT22;66364;52.622;7.746;2023-06-05T04:30:50;10.20;99.90
77305;DHT22;66364;52.622;7.746;2023-06-05T04:32:51;10.00;99.90
77305;DHT22;66364;52.622;7.746;2023-06-05T04:34:53;10.20;99.90
77305;DHT22;66364;52.622;7.746;2023-06-05T04:36:55;10.20;99.90
77305;DHT22;66364;52.622;7.746;2023-06-05T04:38:56;10.20;99.90
77305;DHT22;66364;52.622;7.746;2023-06-05T04:40:58;10.40;99.90
77305;DHT22;66364;52.622;7.746;2023-06-05T04:42:59;10.50;99.90
77305;DHT22;66364;52.622;7.746;2023-06-05T04:45:03;10.30;99.90
77305;DHT22;66364;52.622;7.746;2023-06-05T04:47:16;10.30;99.90
77305;DHT22;66364;52.622;7.746;2023-06-05T04:49:18;10.40;99.90
77305;DHT22;66364;52.622;7.746;2023-06-05T04:51:24;10.50;99.90
77305;DHT22;66364;52.622;7.746;2023-06-05T04:53:25;10.40;99.90
77305;DHT22;66364;52.622;7.746;2023-06-05T04:55:26;10.40;99.90
77305;DHT22;66364;52.622;7.746;2023-06-05T04:57:27;10.80;99.90
77305;DHT22;66364;52.622;7.746;2023-06-05T04:59:29;10.40;99.90
77305;DHT22;66364;52.622;7.746;2023-06-05T05:01:31;10.50;99.90
77305;DHT22;66364;52.622;7.746;2023-06-05T05:03:32;10.60;99.90
77305;DHT22;66364;52.622;7.746;2023-06-05T05:05:34;10.80;99.90
77305;DHT22;66364;52.622;7.746;2023-06-05T05:07:34;10.30;99.90
77305;DHT22;66364;52.622;7.746;2023-06-05T05:09:35;10.60;99.90
77305;DHT22;66364;52.622;7.746;2023-06-05T05:11:36;10.60;99.90
77305;DHT22;66364;52.622;7.746;2023-06-05T05:13:37;10.90;99.90
77305;DHT22;66364;52.622;7.746;2023-06-05T05:15:38;10.80;99.90
77305;DHT22;66364;52.622;7.746;2023-06-05T05:17:39;10.80;99.90
77305;DHT22;66364;52.622;7.746;2023-06-05T05:19:40;10.80;99.90
77305;DHT22;66364;52.622;7.746;2023-06-05T05:21:41;10.90;99.90
77305;DHT22;66364;52.622;7.746;2023-06-05T05:23:42;10.90;99.90
77305;DHT22;66364;52.622;7.746;2023-06-05T05:25:43;10.80;99.90
77305;DHT22;66364;52.622;7.746;2023-06-05T05:27:43;10.90;99.90
77305;DHT22;66364;52.622;7.746;2023-06-05T05:29:44;11.00;99.90
77305;DHT22;66364;52.622;7.746;2023-06-05T05:31:45;10.80;99.90
77305;DHT22;66364;52.622;7.746;2023-06-05T05:33:46;11.20;99.90
77305;DHT22;66364;52.622;7.746;2023-06-05T05:35:47;11.20;99.90
77305;DHT22;66364;52.622;7.746;2023-06-05T05:37:48;11.30;99.90
77305;DHT22;66364;52.622;7.746;2023-06-05T05:39:49;11.40;99.90
77305;DHT22;66364;52.622;7.746;2023-06-05T05:41:50;11.30;99.90
77305;DHT22;66364;52.622;7.746;2023-06-05T05:43:51;11.70;99.90
77305;DHT22;66364;52.622;7.746;2023-06-05T05:45:52;11.50;99.90
77305;DHT22;66364;52.622;7.746;2023-06-05T05:47:52;11.40;99.90
77305;DHT22;66364;52.622;7.746;2023-06-05T05:49:53;11.70;99.90
77305;DHT22;66364;52.622;7.746;2023-06-05T05:51:55;11.70;99.90
77305;DHT22;66364;52.622;7.746;2023-06-05T05:53:56;11.80;99.90
77305;DHT22;66364;52.622;7.746;2023-06-05T05:55:59;11.90;99.90
77305;DHT22;66364;52.622;7.746;2023-06-05T05:58:02;12.10;99.90
77305;DHT22;66364;52.622;7.746;2023-06-05T06:00:04;12.30;99.90
77305;DHT22;66364;52.622;7.746;2023-06-05T06:02:07;12.00;99.90
77305;DHT22;66364;52.622;7.746;2023-06-05T06:04:10;12.20;99.90
77305;DHT22;66364;52.622;7.746;2023-06-05T06:06:12;12.20;99.90
77305;DHT22;66364;52.622;7.746;2023-06-05T06:08:16;12.10;99.90
77305;DHT22;66364;52.622;7.746;2023-06-05T06:10:18;12.30;99.90
77305;DHT22;66364;52.622;7.746;2023-06-05T06:12:21;12.40;99.90
77305;DHT22;66364;52.622;7.746;2023-06-05T06:14:22;12.30;99.90
77305;DHT22;66364;52.622;7.746;2023-06-05T06:16:24;12.50;99.90
77305;DHT22;66364;52.622;7.746;2023-06-05T06:18:27;12.50;99.90
77305;DHT22;66364;52.622;7.746;2023-06-05T06:20:29;12.50;99.90
77305;DHT22;66364;52.622;7.746;2023-06-05T06:22:32;12.70;99.90
77305;DHT22;66364;52.622;7.746;2023-06-05T06:24:34;12.80;99.90
77305;DHT22;66364;52.622;7.746;2023-06-05T06:26:35;12.50;99.90
77305;DHT22;66364;52.622;7.746;2023-06-05T06:28:37;12.60;99.90
77305;DHT22;66364;52.622;7.746;2023-06-05T06:30:38;12.70;99.90
77305;DHT22;66364;52.622;7.746;2023-06-05T06:32:39;13.20;99.90
77305;DHT22;66364;52.622;7.746;2023-06-05T06:34:41;13.10;99.90
77305;DHT22;66364;52.622;7.746;2023-06-05T06:36:42;13.00;99.90
77305;DHT22;66364;52.622;7.746;2023-06-05T06:38:44;13.10;99.90
77305;DHT22;66364;52.622;7.746;2023-06-05T06:40:46;13.20;99.90
77305;DHT22;66364;52.622;7.746;2023-06-05T06:42:48;13.30;99.90
77305;DHT22;66364;52.622;7.746;2023-06-05T06:44:49;13.50;99.90
77305;DHT22;66364;52.622;7.746;2023-06-05T06:46:51;13.60;99.90
77305;DHT22;66364;52.622;7.746;2023-06-05T06:48:53;13.70;99.90
77305;DHT22;66364;52.622;7.746;2023-06-05T06:50:54;13.70;99.90
77305;DHT22;66364;52.622;7.746;2023-06-05T06:52:55;13.70;99.90
77305;DHT22;66364;52.622;7.746;2023-06-05T06:54:56;13.80;99.90
77305;DHT22;66364;52.622;7.746;2023-06-05T06:56:56;13.80;99.90
77305;DHT22;66364;52.622;7.746;2023-06-05T06:58:58;13.90;99.90
77305;DHT22;66364;52.622;7.746;2023-06-05T07:00:59;14.00;99.90
77305;DHT22;66364;52.622;7.746;2023-06-05T07:03:01;14.30;99.90
77305;DHT22;66364;52.622;7.746;2023-06-05T07:05:02;14.20;99.90
77305;DHT22;66364;52.622;7.746;2023-06-05T07:07:04;14.30;99.90
77305;DHT22;66364;52.622;7.746;2023-06-05T07:09:05;14.40;99.90
77305;DHT22;66364;52.622;7.746;2023-06-05T07:11:06;14.50;99.90
77305;DHT22;66364;52.622;7.746;2023-06-05T07:13:07;14.70;99.90
77305;DHT22;66364;52.622;7.746;2023-06-05T07:15:08;15.00;99.90
77305;DHT22;66364;52.622;7.746;2023-06-05T07:17:09;14.90;99.90
77305;DHT22;66364;52.622;7.746;2023-06-05T07:19:10;15.20;99.90
77305;DHT22;66364;52.622;7.746;2023-06-05T07:21:11;15.10;99.90
77305;DHT22;66364;52.622;7.746;2023-06-05T07:23:14;15.10;99.90
77305;DHT22;66364;52.622;7.746;2023-06-05T07:25:15;15.30;99.90
77305;DHT22;66364;52.622;7.746;2023-06-05T07:27:16;15.40;99.90
77305;DHT22;66364;52.622;7.746;2023-06-05T07:29:18;15.40;99.90
77305;DHT22;66364;52.622;7.746;2023-06-05T07:31:19;15.60;99.90
77305;DHT22;66364;52.622;7.746;2023-06-05T07:33:20;15.60;99.90
77305;DHT22;66364;52.622;7.746;2023-06-05T07:35:21;15.70;99.90
77305;DHT22;66364;52.622;7.746;2023-06-05T07:37:23;15.80;99.90
77305;DHT22;66364;52.622;7.746;2023-06-05T07:39:23;15.90;99.90
77305;DHT22;66364;52.622;7.746;2023-06-05T07:41:25;16.10;99.90
77305;DHT22;66364;52.622;7.746;2023-06-05T07:43:25;16.20;99.90
77305;DHT22;66364;52.622;7.746;2023-06-05T07:45:26;16.40;99.90
77305;DHT22;66364;52.622;7.746;2023-06-05T07:47:27;16.40;99.90
77305;DHT22;66364;52.622;7.746;2023-06-05T07:49:30;16.50;99.90
77305;DHT22;66364;52.622;7.746;2023-06-05T07:51:31;16.60;99.90
77305;DHT22;66364;52.622;7.746;2023-06-05T07:53:32;16.60;99.90
77305;DHT22;66364;52.622;7.746;2023-06-05T07:55:33;16.70;99.90
77305;DHT22;66364;52.622;7.746;2023-06-05T07:57:34;16.80;99.90
77305;DHT22;66364;52.622;7.746;2023-06-05T07:59:35;16.80;99.90
77305;DHT22;66364;52.622;7.746;2023-06-05T08:01:36;17.00;99.90
77305;DHT22;66364;52.622;7.746;2023-06-05T08:03:37;17.20;99.90
77305;DHT22;66364;52.622;7.746;2023-06-05T08:05:38;17.40;99.90
77305;DHT22;66364;52.622;7.746;2023-06-05T08:07:40;17.50;99.90
77305;DHT22;66364;52.622;7.746;2023-06-05T08:09:41;17.50;99.90
77305;DHT22;66364;52.622;7.746;2023-06-05T08:11:43;17.50;99.90
77305;DHT22;66364;52.622;7.746;2023-06-05T08:13:44;17.60;99.90
77305;DHT22;66364;52.622;7.746;2023-06-05T08:15:45;17.80;99.90
77305;DHT22;66364;52.622;7.746;2023-06-05T08:17:46;18.10;99.90
77305;DHT22;66364;52.622;7.746;2023-06-05T08:19:47;18.00;99.90
77305;DHT22;66364;52.622;7.746;2023-06-05T08:21:52;18.00;99.90
77305;DHT22;66364;52.622;7.746;2023-06-05T08:23:53;18.20;99.90
77305;DHT22;66364;52.622;7.746;2023-06-05T08:25:54;18.20;99.90
77305;DHT22;66364;52.622;7.746;2023-06-05T08:27:55;18.30;99.90
77305;DHT22;66364;52.622;7.746;2023-06-05T08:29:57;18.30;99.90
77305;DHT22;66364;52.622;7.746;2023-06-05T08:31:57;18.50;99.90
77305;DHT22;66364;52.622;7.746;2023-06-05T08:33:59;18.50;99.90
77305;DHT22;66364;52.622;7.746;2023-06-05T08:36:01;18.60;99.90
77305;DHT22;66364;52.622;7.746;2023-06-05T08:38:03;18.70;99.90
77305;DHT22;66364;52.622;7.746;2023-06-05T08:40:04;19.10;99.90
77305;DHT22;66364;52.622;7.746;2023-06-05T08:42:06;18.90;99.90
77305;DHT22;66364;52.622;7.746;2023-06-05T08:44:07;19.00;99.90
77305;DHT22;66364;52.622;7.746;2023-06-05T08:46:09;19.30;99.90
77305;DHT22;66364;52.622;7.746;2023-06-05T08:48:13;19.50;99.90
77305;DHT22;66364;52.622;7.746;2023-06-05T08:50:16;19.30;99.90
77305;DHT22;66364;52.622;7.746;2023-06-05T08:52:19;19.40;99.90
77305;DHT22;66364;52.622;7.746;2023-06-05T08:54:22;19.40;99.90
77305;DHT22;66364;52.622;7.746;2023-06-05T08:56:25;19.60;99.90
77305;DHT22;66364;52.622;7.746;2023-06-05T08:58:27;19.40;99.90
77305;DHT22;66364;52.622;7.746;2023-06-05T09:00:28;19.40;99.90
77305;DHT22;66364;52.622;7.746;2023-06-05T09:02:29;19.60;99.90
77305;DHT22;66364;52.622;7.746;2023-06-05T09:04:30;20.00;99.90
77305;DHT22;66364;52.622;7.746;2023-06-05T09:06:31;20.20;97.40
77305;DHT22;66364;52.622;7.746;2023-06-05T09:08:33;20.10;97.50
77305;DHT22;66364;52.622;7.746;2023-06-05T09:10:34;20.30;96.70
77305;DHT22;66364;52.622;7.746;2023-06-05T09:12:56;20.30;94.70
77305;DHT22;66364;52.622;7.746;2023-06-05T09:14:57;20.20;95.50
77305;DHT22;66364;52.622;7.746;2023-06-05T09:17:00;20.30;91.20
77305;DHT22;66364;52.622;7.746;2023-06-05T09:19:01;20.30;88.80
77305;DHT22;66364;52.622;7.746;2023-06-05T09:21:11;20.40;91.70
77305;DHT22;66364;52.622;7.746;2023-06-05T09:25:24;20.80;87.70
77305;DHT22;66364;52.622;7.746;2023-06-05T09:27:25;21.00;90.40
77305;DHT22;66364;52.622;7.746;2023-06-05T09:29:28;21.20;85.00
77305;DHT22;66364;52.622;7.746;2023-06-05T09:31:40;21.50;80.00
77305;DHT22;66364;52.622;7.746;2023-06-05T09:33:35;21.70;78.70
77305;DHT22;66364;52.622;7.746;2023-06-05T09:35:36;22.00;78.30
77305;DHT22;66364;52.622;7.746;2023-06-05T09:37:37;22.10;77.60
77305;DHT22;66364;52.622;7.746;2023-06-05T09:39:40;22.20;75.00
77305;DHT22;66364;52.622;7.746;2023-06-05T09:41:43;22.20;75.00
77305;DHT22;66364;52.622;7.746;2023-06-05T09:43:44;22.60;72.60
77305;DHT22;66364;52.622;7.746;2023-06-05T09:45:45;22.60;70.40
77305;DHT22;66364;52.622;7.746;2023-06-05T09:47:46;22.70;72.40
77305;DHT22;66364;52.622;7.746;2023-06-05T09:49:47;22.70;69.70
77305;DHT22;66364;52.622;7.746;2023-06-05T09:51:48;23.10;69.00
77305;DHT22;66364;52.622;7.746;2023-06-05T09:53:50;23.30;68.00
77305;DHT22;66364;52.622;7.746;2023-06-05T09:55:51;23.50;64.90
77305;DHT22;66364;52.622;7.746;2023-06-05T09:57:54;23.40;64.90
77305;DHT22;66364;52.622;7.746;2023-06-05T09:59:57;23.40;63.30
77305;DHT22;66364;52.622;7.746;2023-06-05T10:02:05;23.50;66.80
77305;DHT22;66364;52.622;7.746;2023-06-05T10:04:09;23.70;63.40
77305;DHT22;66364;52.622;7.746;2023-06-05T10:06:11;24.00;63.30
77305;DHT22;66364;52.622;7.746;2023-06-05T10:08:13;24.20;62.30
77305;DHT22;66364;52.622;7.746;2023-06-05T10:10:14;24.60;54.30
77305;DHT22;66364;52.622;7.746;2023-06-05T10:12:15;24.60;57.60
77305;DHT22;66364;52.622;7.746;2023-06-05T10:14:22;24.90;54.10
77305;DHT22;66364;52.622;7.746;2023-06-05T10:16:25;25.00;54.00
77305;DHT22;66364;52.622;7.746;2023-06-05T10:18:27;24.50;51.80
77305;DHT22;66364;52.622;7.746;2023-06-05T10:20:28;24.30;58.10
77305;DHT22;66364;52.622;7.746;2023-06-05T10:22:30;24.60;58.40
77305;DHT22;66364;52.622;7.746;2023-06-05T10:24:44;24.90;57.50
77305;DHT22;66364;52.622;7.746;2023-06-05T10:31:40;25.30;53.10
77305;DHT22;66364;52.622;7.746;2023-06-05T10:38:39;25.00;53.00
77305;DHT22;66364;52.622;7.746;2023-06-05T10:40:40;24.80;51.10
77305;DHT22;66364;52.622;7.746;2023-06-05T10:42:41;24.50;53.10
77305;DHT22;66364;52.622;7.746;2023-06-05T10:44:43;24.50;56.70
77305;DHT22;66364;52.622;7.746;2023-06-05T10:46:45;24.20;54.80
77305;DHT22;66364;52.622;7.746;2023-06-05T10:51:37;24.30;55.50
77305;DHT22;66364;52.622;7.746;2023-06-05T10:53:43;24.50;54.40
77305;DHT22;66364;52.622;7.746;2023-06-05T10:55:44;24.40;54.40
77305;DHT22;66364;52.622;7.746;2023-06-05T10:58:06;24.40;52.50
77305;DHT22;66364;52.622;7.746;2023-06-05T11:00:08;24.20;57.10
77305;DHT22;66364;52.622;7.746;2023-06-05T11:04:14;24.70;56.60
77305;DHT22;66364;52.622;7.746;2023-06-05T11:06:14;25.10;52.50
77305;DHT22;66364;52.622;7.746;2023-06-05T11:08:16;25.10;49.80
77305;DHT22;66364;52.622;7.746;2023-06-05T11:10:18;25.20;50.90
77305;DHT22;66364;52.622;7.746;2023-06-05T11:12:19;25.20;49.00
77305;DHT22;66364;52.622;7.746;2023-06-05T11:14:23;25.20;44.00
77305;DHT22;66364;52.622;7.746;2023-06-05T11:16:32;25.10;39.10
77305;DHT22;66364;52.622;7.746;2023-06-05T11:18:32;25.20;41.20
77305;DHT22;66364;52.622;7.746;2023-06-05T11:27:49;25.10;39.50
77305;DHT22;66364;52.622;7.746;2023-06-05T11:29:50;25.10;42.90
77305;DHT22;66364;52.622;7.746;2023-06-05T11:31:53;25.40;40.60
77305;DHT22;66364;52.622;7.746;2023-06-05T11:33:54;25.40;44.80
77305;DHT22;66364;52.622;7.746;2023-06-05T11:36:00;25.40;43.60
77305;DHT22;66364;52.622;7.746;2023-06-05T11:38:32;25.60;42.60
77305;DHT22;66364;52.622;7.746;2023-06-05T11:40:34;25.60;43.50
77305;DHT22;66364;52.622;7.746;2023-06-05T11:42:36;25.80;43.70
77305;DHT22;66364;52.622;7.746;2023-06-05T11:44:37;25.90;42.40
77305;DHT22;66364;52.622;7.746;2023-06-05T11:46:44;26.00;43.50
77305;DHT22;66364;52.622;7.746;2023-06-05T11:48:44;25.90;37.60
77305;DHT22;66364;52.622;7.746;2023-06-05T11:53:06;25.80;39.30
77305;DHT22;66364;52.622;7.746;2023-06-05T11:55:13;25.70;38.60
77305;DHT22;66364;52.622;7.746;2023-06-05T11:57:14;25.80;40.20
77305;DHT22;66364;52.622;7.746;2023-06-05T11:59:14;26.00;39.10
77305;DHT22;66364;52.622;7.746;2023-06-05T12:01:19;26.20;40.20
77305;DHT22;66364;52.622;7.746;2023-06-05T12:03:21;26.30;33.60
77305;DHT22;66364;52.622;7.746;2023-06-05T12:05:22;25.90;33.60
77305;DHT22;66364;52.622;7.746;2023-06-05T12:07:29;25.50;40.00
77305;DHT22;66364;52.622;7.746;2023-06-05T12:09:30;25.80;38.50
77305;DHT22;66364;52.622;7.746;2023-06-05T12:11:32;26.10;39.00
77305;DHT22;66364;52.622;7.746;2023-06-05T12:16:00;25.70;35.00
77305;DHT22;66364;52.622;7.746;2023-06-05T12:18:02;25.20;34.10
77305;DHT22;66364;52.622;7.746;2023-06-05T12:20:05;24.70;35.40
77305;DHT22;66364;52.622;7.746;2023-06-05T12:22:07;24.40;36.70
77305;DHT22;66364;52.622;7.746;2023-06-05T12:24:09;24.70;35.60
77305;DHT22;66364;52.622;7.746;2023-06-05T12:26:12;24.90;32.80
77305;DHT22;66364;52.622;7.746;2023-06-05T12:28:18;25.00;35.30
77305;DHT22;66364;52.622;7.746;2023-06-05T12:30:19;25.40;33.40
77305;DHT22;66364;52.622;7.746;2023-06-05T12:32:25;25.70;34.30
77305;DHT22;66364;52.622;7.746;2023-06-05T12:34:46;25.70;33.70
77305;DHT22;66364;52.622;7.746;2023-06-05T12:36:47;25.90;31.70
77305;DHT22;66364;52.622;7.746;2023-06-05T12:38:50;26.10;33.30
77305;DHT22;66364;52.622;7.746;2023-06-05T12:40:51;26.40;32.40
77305;DHT22;66364;52.622;7.746;2023-06-05T12:42:52;26.60;29.10
77305;DHT22;66364;52.622;7.746;2023-06-05T12:44:54;26.50;28.30
77305;DHT22;66364;52.622;7.746;2023-06-05T12:46:55;26.50;25.60
77305;DHT22;66364;52.622;7.746;2023-06-05T12:48:56;26.40;26.50
77305;DHT22;66364;52.622;7.746;2023-06-05T12:50:57;26.50;27.10
77305;DHT22;66364;52.622;7.746;2023-06-05T12:52:59;26.50;28.80
77305;DHT22;66364;52.622;7.746;2023-06-05T12:55:00;26.70;26.90
77305;DHT22;66364;52.622;7.746;2023-06-05T12:57:01;26.30;25.10
77305;DHT22;66364;52.622;7.746;2023-06-05T12:59:02;26.20;26.50
77305;DHT22;66364;52.622;7.746;2023-06-05T13:01:04;26.20;25.30
77305;DHT22;66364;52.622;7.746;2023-06-05T13:03:05;26.30;27.70
77305;DHT22;66364;52.622;7.746;2023-06-05T13:05:07;26.40;27.30
77305;DHT22;66364;52.622;7.746;2023-06-05T13:07:08;26.50;27.80
77305;DHT22;66364;52.622;7.746;2023-06-05T13:09:10;26.50;24.50
77305;DHT22;66364;52.622;7.746;2023-06-05T13:11:12;26.30;25.40
77305;DHT22;66364;52.622;7.746;2023-06-05T13:13:13;26.10;25.50
77305;DHT22;66364;52.622;7.746;2023-06-05T13:15:14;26.00;23.70
77305;DHT22;66364;52.622;7.746;2023-06-05T13:17:15;26.20;24.70
77305;DHT22;66364;52.622;7.746;2023-06-05T13:19:16;26.20;23.50
77305;DHT22;66364;52.622;7.746;2023-06-05T13:21:17;26.00;21.60